Time;durP1;ratioP1;P1;durP2;ratioP2;P2;SDS_P1;SDS_P2;PMS_P1;PMS_P2;Temp;Humidity;BMP_temperature;BMP_pressure;BME280_temperature;BME280_humidity;BME280_pressure;Samples;Min_cycle;Max_cycle;Signal;HPM_P1;HPM_P2
2022/03/12 00:00:48;;;;;;;;;;;;;;;-0.88;50.09;96042.66;5126858;27;1235;-48
2022/03/12 00:03:17;;;;;;;;;;;;;;;-0.91;50.07;96041.94;5125975;27;1589;-48
2022/03/12 00:05:54;;;;;;;;;;;;;;;-0.90;50.53;96043.66;5127033;27;1287;-48
2022/03/12 00:08:28;;;;;;;;;;;;;;;-1.07;50.83;96044.41;5126145;27;1074;-48
2022/03/12 00:10:54;;;;;;;;;;;;;;;-0.94;51.18;96047.34;5125712;27;1312;-48
2022/03/12 00:13:20;;;;;;;;;;;;;;;-0.92;50.22;96043.72;5125510;27;1490;-48
2022/03/12 00:15:50;;;;;;;;;;;;;;;-1.01;50.53;96044.13;5126687;27;1288;-48
2022/03/12 00:18:18;;;;;;;;;;;;;;;-1.04;50.58;96046.91;5127522;27;1988;-48
2022/03/12 00:20:48;;;;;;;;;;;;;;;-1.02;50.08;96048.53;5126558;27;1314;-48
2022/03/12 00:23:17;;;;;;;;;;;;;;;-0.98;50.36;96044.84;5127462;27;1320;-48
2022/03/12 00:25:44;;;;;;;;;;;;;;;-0.95;50.04;96049.09;5127578;27;1224;-48
2022/03/12 00:28:12;;;;;;;;;;;;;;;-1.24;51.52;96045.16;5127532;27;1328;-48
2022/03/12 00:30:39;;;;;;;;;;;;;;;-1.41;51.67;96049.34;5127479;27;1303;-48
2022/03/12 00:33:05;;;;;;;;;;;;;;;-1.43;51.62;96048.56;5125923;27;1851;-49
2022/03/12 00:35:31;;;;;;;;;;;;;;;-1.32;51.48;96042.88;5125622;27;1239;-48
2022/03/12 00:37:57;;;;;;;;;;;;;;;-1.41;51.49;96041.50;5126909;27;1989;-48
2022/03/12 00:40:23;;;;;;;;;;;;;;;-1.53;52.13;96049.06;5127303;27;1315;-49
2022/03/12 00:42:49;;;;;;;;;;;;;;;-1.58;52.09;96039.59;5126776;27;1596;-48
2022/03/12 00:45:15;;;;;;;;;;;;;;;-1.68;52.03;96040.91;5127220;27;1364;-48
2022/03/12 00:47:42;;;;;;;;;;;;;;;-1.75;53.30;96039.47;5126835;27;1306;-48
2022/03/12 00:50:08;;;;;;;;;;;;;;;-1.88;53.11;96033.88;5125847;27;1219;-48
2022/03/12 00:52:34;;;;;;;;;;;;;;;-2.01;52.91;96032.69;5123662;27;1341;-48
2022/03/12 00:55:00;;;;;;;;;;;;;;;-2.03;54.12;96031.88;5126810;27;1235;-48
2022/03/12 00:57:26;;;;;;;;;;;;;;;-2.11;54.98;96028.75;5125566;27;1902;-48
2022/03/12 00:59:52;;;;;;;;;;;;;;;-2.31;55.69;96030.41;5124933;27;1302;-48
2022/03/12 01:02:19;;;;;;;;;;;;;;;-2.61;55.62;96030.69;5126543;27;1219;-48
2022/03/12 01:04:45;;;;;;;;;;;;;;;-2.99;56.03;96033.00;5126575;27;1316;-48
2022/03/12 01:07:11;;;;;;;;;;;;;;;-3.31;56.82;96036.81;5125938;27;1837;-48
2022/03/12 01:09:38;;;;;;;;;;;;;;;-3.44;58.01;96036.41;5124346;27;1334;-48
2022/03/12 01:12:05;;;;;;;;;;;;;;;-3.42;58.36;96036.34;5124915;27;1296;-49
2022/03/12 01:14:31;;;;;;;;;;;;;;;-3.38;58.05;96035.31;5126860;27;1835;-49
2022/03/12 01:17:00;;;;;;;;;;;;;;;-3.36;58.49;96033.50;5126538;27;1987;-48
2022/03/12 01:19:26;;;;;;;;;;;;;;;-3.69;57.73;96023.34;5125391;27;1314;-48
2022/03/12 01:21:53;;;;;;;;;;;;;;;-3.99;58.95;96023.47;5125933;27;2621;-48
2022/03/12 01:24:19;;;;;;;;;;;;;;;-4.22;59.19;96021.63;5127191;27;1639;-48
2022/03/12 01:26:45;;;;;;;;;;;;;;;-4.09;59.13;96016.88;5125366;27;1392;-48
2022/03/12 01:29:11;;;;;;;;;;;;;;;-3.84;58.72;96027.34;5126512;27;1324;-48
2022/03/12 01:31:37;;;;;;;;;;;;;;;-3.91;59.73;96031.06;5126361;27;1526;-49
2022/03/12 01:34:04;;;;;;;;;;;;;;;-3.62;59.10;96035.31;5125312;27;1488;-48
2022/03/12 01:36:30;;;;;;;;;;;;;;;-3.65;58.70;96026.72;5126129;27;1519;-49
2022/03/12 01:38:57;;;;;;;;;;;;;;;-4.02;59.32;96020.13;5126148;27;1968;-48
2022/03/12 01:41:28;;;;;;;;;;;;;;;-4.29;60.50;96024.50;5124277;27;1601;-48
2022/03/12 01:43:55;;;;;;;;;;;;;;;-4.01;59.71;96021.84;5125613;27;1527;-48
2022/03/12 01:46:27;;;;;;;;;;;;;;;-3.99;60.03;96027.84;5124113;27;1121;-48
2022/03/12 01:48:53;;;;;;;;;;;;;;;-4.02;59.72;96023.59;5122695;27;1266;-48
2022/03/12 01:51:19;;;;;;;;;;;;;;;-3.79;60.17;96024.59;5124967;27;1940;-48
2022/03/12 01:53:45;;;;;;;;;;;;;;;-3.81;59.70;96027.25;5125237;27;1317;-48
2022/03/12 01:56:11;;;;;;;;;;;;;;;-3.92;59.60;96021.53;5124993;27;1318;-48
2022/03/12 01:58:37;;;;;;;;;;;;;;;-3.85;59.97;96036.09;5123649;27;1910;-49
2022/03/12 02:01:03;;;;;;;;;;;;;;;-3.87;59.32;96037.91;5124983;27;1227;-48
2022/03/12 02:03:30;;;;;;;;;;;;;;;-3.96;60.00;96036.44;5124816;27;1337;-48
2022/03/12 02:05:56;;;;;;;;;;;;;;;-3.83;60.39;96038.63;5123396;27;1609;-48
2022/03/12 02:08:22;;;;;;;;;;;;;;;-3.56;59.71;96042.06;5125361;27;1583;-48
2022/03/12 02:10:57;;;;;;;;;;;;;;;-3.68;59.91;96032.91;5125603;27;1277;-48
2022/03/12 02:13:24;;;;;;;;;;;;;;;-3.74;61.05;96023.53;5123881;27;1296;-48
2022/03/12 02:16:07;;;;;;;;;;;;;;;-3.78;61.99;96026.28;5123778;27;1301;-48
2022/03/12 02:18:34;;;;;;;;;;;;;;;-3.58;61.04;96023.81;5124756;27;1988;-48
2022/03/12 02:21:00;;;;;;;;;;;;;;;-3.41;60.94;96025.00;5123073;27;2750;-48
2022/03/12 02:23:26;;;;;;;;;;;;;;;-3.41;60.38;96017.16;5123679;27;1241;-48
2022/03/12 02:25:52;;;;;;;;;;;;;;;-3.80;61.15;96028.94;5116850;27;1239;-48
2022/03/12 02:28:19;;;;;;;;;;;;;;;-3.74;61.56;96030.47;5113020;28;1055;-48
2022/03/12 02:30:51;;;;;;;;;;;;;;;-3.67;62.26;96023.28;5113903;28;1057;-48
2022/03/12 02:33:27;;;;;;;;;;;;;;;-3.79;62.13;96035.88;5114144;28;1264;-48
2022/03/12 02:35:53;;;;;;;;;;;;;;;-3.78;62.27;96027.13;5113638;28;952;-48
2022/03/12 02:38:21;;;;;;;;;;;;;;;-3.77;61.92;96025.38;5113755;28;1988;-48
2022/03/12 02:40:47;;;;;;;;;;;;;;;-3.62;61.75;96031.84;5113824;28;1020;-48
2022/03/12 02:43:13;;;;;;;;;;;;;;;-3.39;61.11;96031.88;5113521;28;1000;-48
2022/03/12 02:45:40;;;;;;;;;;;;;;;-3.43;60.94;96032.88;5114146;28;1035;-48
2022/03/12 02:48:08;;;;;;;;;;;;;;;-3.40;62.04;96038.00;5113476;28;1044;-48
2022/03/12 02:50:35;;;;;;;;;;;;;;;-3.26;61.55;96037.50;5113716;28;1868;-48
2022/03/12 02:53:01;;;;;;;;;;;;;;;-3.12;62.11;96046.63;5113588;28;1031;-48
2022/03/12 02:55:27;;;;;;;;;;;;;;;-3.01;61.99;96047.91;5114141;28;971;-48
2022/03/12 02:57:53;;;;;;;;;;;;;;;-3.15;62.74;96045.81;5113598;28;2000;-48
2022/03/12 03:00:20;;;;;;;;;;;;;;;-3.27;61.95;96048.03;5113602;28;1024;-48
2022/03/12 03:02:53;;;;;;;;;;;;;;;-3.37;62.58;96052.75;5113642;28;969;-48
2022/03/12 03:05:33;;;;;;;;;;;;;;;-3.13;61.50;96045.75;5114037;28;1058;-48
2022/03/12 03:08:01;;;;;;;;;;;;;;;-3.02;59.93;96048.81;5113455;28;1157;-48
2022/03/12 03:10:33;;;;;;;;;;;;;;;-2.91;59.39;96058.91;5113905;28;1405;-48
2022/03/12 03:13:04;;;;;;;;;;;;;;;-2.77;59.98;96061.00;5113497;28;990;-48
2022/03/12 03:15:30;;;;;;;;;;;;;;;-2.76;59.54;96070.56;5113583;28;1043;-48
2022/03/12 03:17:57;;;;;;;;;;;;;;;-2.88;60.09;96065.78;5113140;28;1915;-48
2022/03/12 03:20:23;;;;;;;;;;;;;;;-2.81;58.83;96073.38;5113836;28;1056;-49
2022/03/12 03:22:49;;;;;;;;;;;;;;;-2.85;59.04;96074.38;5130339;28;3069;-48
2022/03/12 03:25:16;;;;;;;;;;;;;;;-2.87;58.98;96076.19;5132836;28;1083;-49
2022/03/12 03:27:42;;;;;;;;;;;;;;;-2.82;58.64;96076.88;5133788;27;1195;-48
2022/03/12 03:30:09;;;;;;;;;;;;;;;-2.84;57.73;96067.38;5134075;27;1024;-48
2022/03/12 03:32:35;;;;;;;;;;;;;;;-2.92;57.47;96070.28;5134093;27;1031;-48
2022/03/12 03:35:01;;;;;;;;;;;;;;;-2.92;57.70;96069.41;5137233;27;1183;-48
2022/03/12 03:37:27;;;;;;;;;;;;;;;-2.95;57.64;96071.25;5138122;27;1909;-48
2022/03/12 03:39:53;;;;;;;;;;;;;;;-3.04;56.90;96071.56;5137633;27;1067;-48
2022/03/12 03:42:20;;;;;;;;;;;;;;;-2.99;57.05;96076.66;5137918;27;995;-48
2022/03/12 03:44:46;;;;;;;;;;;;;;;-2.90;56.87;96078.06;5137805;27;1047;-48
2022/03/12 03:47:12;;;;;;;;;;;;;;;-2.90;56.56;96072.81;5137799;27;1935;-48
2022/03/12 03:49:38;;;;;;;;;;;;;;;-2.85;56.15;96071.75;5137905;27;967;-48
2022/03/12 03:52:05;;;;;;;;;;;;;;;-2.68;55.60;96078.97;5123216;27;1144;-48
2022/03/12 03:54:31;;;;;;;;;;;;;;;-2.58;55.43;96067.25;5116403;28;1036;-49
2022/03/12 03:56:57;;;;;;;;;;;;;;;-2.75;55.73;96077.50;5115805;28;1913;-48
2022/03/12 03:59:23;;;;;;;;;;;;;;;-2.81;56.69;96078.59;5116582;28;1024;-49
2022/03/12 04:01:50;;;;;;;;;;;;;;;-2.74;56.64;96076.59;5117216;28;1047;-48
2022/03/12 04:04:17;;;;;;;;;;;;;;;-2.83;56.02;96084.78;5117144;28;971;-48
2022/03/12 04:06:43;;;;;;;;;;;;;;;-2.82;56.02;96091.75;5116876;28;1027;-48
2022/03/12 04:09:09;;;;;;;;;;;;;;;-2.73;55.89;96086.16;5116689;27;1084;-49
2022/03/12 04:11:35;;;;;;;;;;;;;;;-2.69;57.04;96082.50;5117088;28;1295;-48
2022/03/12 04:14:04;;;;;;;;;;;;;;;-2.66;56.62;96092.84;5116153;28;1020;-48
2022/03/12 04:16:31;;;;;;;;;;;;;;;-2.60;56.45;96097.00;5116869;28;1179;-49
2022/03/12 04:18:57;;;;;;;;;;;;;;;-2.58;56.61;96103.91;5116379;28;1910;-48
2022/03/12 04:21:23;;;;;;;;;;;;;;;-2.67;56.52;96095.56;5115840;28;1095;-48
2022/03/12 04:23:49;;;;;;;;;;;;;;;-2.58;56.00;96105.66;5116308;28;1970;-48
2022/03/12 04:26:16;;;;;;;;;;;;;;;-2.73;56.26;96101.00;5115639;28;979;-48
2022/03/12 04:28:42;;;;;;;;;;;;;;;-2.82;56.05;96104.81;5116271;28;1079;-48
2022/03/12 04:31:08;;;;;;;;;;;;;;;-2.88;56.78;96108.53;5116360;28;1082;-48
2022/03/12 04:33:35;;;;;;;;;;;;;;;-2.71;56.17;96114.88;5116280;28;972;-48
2022/03/12 04:36:03;;;;;;;;;;;;;;;-2.70;56.71;96113.97;5116205;28;980;-48
2022/03/12 04:38:29;;;;;;;;;;;;;;;-2.71;56.69;96121.00;5116420;28;1988;-48
2022/03/12 04:40:56;;;;;;;;;;;;;;;-2.68;56.50;96125.25;5116322;28;956;-48
2022/03/12 04:43:22;;;;;;;;;;;;;;;-2.71;56.89;96118.38;5115976;28;1031;-48
2022/03/12 04:45:49;;;;;;;;;;;;;;;-2.77;57.22;96129.06;5115840;28;998;-48
2022/03/12 04:48:16;;;;;;;;;;;;;;;-2.74;57.04;96131.56;5116452;28;962;-48
2022/03/12 04:50:42;;;;;;;;;;;;;;;-2.74;57.64;96144.66;5118513;27;1220;-48
2022/03/12 04:53:09;;;;;;;;;;;;;;;-2.79;58.53;96143.97;5136866;27;987;-48
2022/03/12 04:55:36;;;;;;;;;;;;;;;-2.73;58.37;96148.13;5136551;27;964;-48
2022/03/12 04:58:04;;;;;;;;;;;;;;;-2.71;58.82;96147.16;5136468;27;1905;-48
2022/03/12 05:00:31;;;;;;;;;;;;;;;-2.55;58.91;96142.22;5136173;27;1023;-48
2022/03/12 05:03:18;;;;;;;;;;;;;;;-2.48;59.29;96142.84;5136650;27;1047;-48
2022/03/12 05:05:45;;;;;;;;;;;;;;;-2.34;59.02;96150.19;5136035;27;1795;-48
2022/03/12 05:08:22;;;;;;;;;;;;;;;-2.36;58.26;96152.84;5136456;27;1048;-49
2022/03/12 05:10:52;;;;;;;;;;;;;;;-2.27;59.01;96154.28;5136093;27;1000;-48
2022/03/12 05:13:22;;;;;;;;;;;;;;;-2.11;58.81;96165.84;5135947;27;2003;-48
2022/03/12 05:15:53;;;;;;;;;;;;;;;-2.01;58.23;96156.75;5135833;27;980;-48
2022/03/12 05:18:20;;;;;;;;;;;;;;;-2.01;57.99;96163.72;5135958;27;1996;-48
2022/03/12 05:20:48;;;;;;;;;;;;;;;-2.04;58.00;96158.63;5136102;27;987;-48
2022/03/12 05:23:16;;;;;;;;;;;;;;;-1.91;57.99;96159.84;5135939;27;1095;-49
2022/03/12 05:25:42;;;;;;;;;;;;;;;-1.98;58.00;96153.13;5135759;27;1119;-48
2022/03/12 05:28:15;;;;;;;;;;;;;;;-1.95;57.87;96163.50;5135652;27;1036;-48
2022/03/12 05:30:44;;;;;;;;;;;;;;;-1.87;57.55;96169.28;5135713;27;1302;-48
2022/03/12 05:33:10;;;;;;;;;;;;;;;-2.01;58.25;96176.81;5136074;27;1056;-48
2022/03/12 05:35:39;;;;;;;;;;;;;;;-1.94;57.30;96169.59;5135853;27;1029;-48
2022/03/12 05:38:06;;;;;;;;;;;;;;;-1.91;58.05;96174.72;5135815;27;1910;-48
2022/03/12 05:40:38;;;;;;;;;;;;;;;-1.86;58.02;96181.50;5135588;27;953;-47
2022/03/12 05:43:07;;;;;;;;;;;;;;;-1.79;57.85;96175.06;5135250;27;974;-48
2022/03/12 05:45:33;;;;;;;;;;;;;;;-1.81;58.05;96178.69;5135562;27;1043;-48
2022/03/12 05:47:59;;;;;;;;;;;;;;;-1.57;58.13;96188.19;5135391;27;1208;-48
2022/03/12 05:50:26;;;;;;;;;;;;;;;-1.28;57.17;96187.91;5134904;27;1211;-48
2022/03/12 05:52:52;;;;;;;;;;;;;;;-1.05;56.15;96185.16;5114897;28;1003;-48
2022/03/12 05:55:20;;;;;;;;;;;;;;;-1.03;55.92;96185.94;5114615;28;1051;-48
2022/03/12 05:57:46;;;;;;;;;;;;;;;-1.05;56.16;96189.56;5114323;28;1922;-48
2022/03/12 06:00:13;;;;;;;;;;;;;;;-0.97;55.63;96195.34;5114764;28;965;-48
2022/03/12 06:02:47;;;;;;;;;;;;;;;-0.82;55.76;96199.09;5114662;28;1027;-48
2022/03/12 06:05:14;;;;;;;;;;;;;;;-0.50;54.55;96199.44;5114774;28;1063;-48
2022/03/12 06:07:45;;;;;;;;;;;;;;;0.30;52.67;96194.00;5114532;28;1032;-48
2022/03/12 06:10:12;;;;;;;;;;;;;;;0.93;50.92;96200.59;5114324;28;969;-48
2022/03/12 06:12:48;;;;;;;;;;;;;;;1.95;47.81;96204.13;5114193;28;1873;-48
2022/03/12 06:15:16;;;;;;;;;;;;;;;3.86;44.00;96198.44;5114274;28;1043;-48
2022/03/12 06:17:43;;;;;;;;;;;;;;;6.16;40.81;96198.31;5114223;28;1922;-48
2022/03/12 06:20:10;;;;;;;;;;;;;;;6.28;39.01;96199.28;5114143;28;1024;-49
2022/03/12 06:22:37;;;;;;;;;;;;;;;6.72;37.42;96199.69;5114326;28;961;-49
2022/03/12 06:25:05;;;;;;;;;;;;;;;8.37;33.53;96199.53;5114432;28;994;-48
2022/03/12 06:27:31;;;;;;;;;;;;;;;10.13;30.98;96201.06;5114020;28;1079;-49
2022/03/12 06:29:57;;;;;;;;;;;;;;;11.96;28.85;96207.94;5114251;28;1026;-49
2022/03/12 06:32:23;;;;;;;;;;;;;;;12.90;26.82;96202.53;5113983;28;1087;-49
2022/03/12 06:34:49;;;;;;;;;;;;;;;14.10;24.90;96213.94;5114058;28;1011;-48
2022/03/12 06:37:16;;;;;;;;;;;;;;;15.69;23.26;96217.81;5113741;28;2123;-48
2022/03/12 06:39:42;;;;;;;;;;;;;;;15.92;22.34;96212.66;5114246;28;1038;-49
2022/03/12 06:42:08;;;;;;;;;;;;;;;16.15;22.39;96215.50;5113786;27;1051;-49
2022/03/12 06:44:36;;;;;;;;;;;;;;;15.96;21.79;96224.78;5113972;28;1012;-48
2022/03/12 06:47:07;;;;;;;;;;;;;;;14.88;22.89;96221.97;5113611;28;1000;-64
2022/03/12 06:49:33;;;;;;;;;;;;;;;14.58;22.91;96234.09;5114023;28;944;-49
2022/03/12 06:51:59;;;;;;;;;;;;;;;15.96;22.22;96230.16;5127186;27;1250;-51
2022/03/12 06:54:25;;;;;;;;;;;;;;;16.70;20.64;96229.25;5134771;27;1056;-50
2022/03/12 06:56:51;;;;;;;;;;;;;;;16.89;20.66;96231.56;5134360;27;1913;-46
2022/03/12 06:59:17;;;;;;;;;;;;;;;15.55;21.46;96238.16;5134588;27;967;-46
2022/03/12 07:01:43;;;;;;;;;;;;;;;14.79;21.59;96239.94;5134117;27;1208;-47
2022/03/12 07:04:10;;;;;;;;;;;;;;;14.10;23.15;96243.53;5134309;28;1079;-46
2022/03/12 07:06:37;;;;;;;;;;;;;;;15.81;21.16;96245.34;5134083;27;1006;-47
2022/03/12 07:09:04;;;;;;;;;;;;;;;17.25;18.80;96244.59;5135951;27;1068;-47
2022/03/12 07:11:31;;;;;;;;;;;;;;;17.29;19.27;96239.69;5138642;27;1026;-47
2022/03/12 07:13:57;;;;;;;;;;;;;;;17.04;19.26;96250.59;5138390;27;969;-47
2022/03/12 07:16:23;;;;;;;;;;;;;;;17.80;19.37;96244.66;5138117;27;1242;-47
2022/03/12 07:18:50;;;;;;;;;;;;;;;17.23;19.45;96246.66;5138315;27;1974;-47
2022/03/12 07:21:16;;;;;;;;;;;;;;;16.78;19.44;96248.94;5138140;27;1047;-47
2022/03/12 07:23:42;;;;;;;;;;;;;;;17.71;19.08;96257.38;5138312;27;1032;-47
2022/03/12 07:26:08;;;;;;;;;;;;;;;17.47;18.80;96258.34;5138256;27;1066;-47
2022/03/12 07:28:34;;;;;;;;;;;;;;;16.91;18.64;96266.53;5138196;27;1055;-47
2022/03/12 07:31:00;;;;;;;;;;;;;;;17.45;18.38;96263.09;5138106;27;1024;-47
2022/03/12 07:33:28;;;;;;;;;;;;;;;18.99;17.16;96267.50;5138001;27;973;-47
2022/03/12 07:35:54;;;;;;;;;;;;;;;20.08;16.03;96269.47;5138038;27;1024;-47
2022/03/12 07:38:20;;;;;;;;;;;;;;;21.16;15.24;96278.31;5138176;27;1918;-48
2022/03/12 07:40:46;;;;;;;;;;;;;;;21.79;14.80;96274.66;5137763;27;2957;-48
2022/03/12 07:43:13;;;;;;;;;;;;;;;23.12;13.79;96285.72;5137231;27;1033;-48
2022/03/12 07:45:39;;;;;;;;;;;;;;;23.89;13.27;96275.03;5137532;27;1039;-48
2022/03/12 07:48:05;;;;;;;;;;;;;;;24.17;13.20;96274.66;5137152;27;1463;-48
2022/03/12 07:50:31;;;;;;;;;;;;;;;17.81;16.65;96271.50;5136556;27;1216;-47
2022/03/12 07:52:57;;;;;;;;;;;;;;;17.47;17.29;96279.97;5117030;28;1506;-47
2022/03/12 07:55:24;;;;;;;;;;;;;;;12.39;21.75;96277.16;5117512;28;1027;-47
2022/03/12 07:57:50;;;;;;;;;;;;;;;9.30;24.96;96273.00;5116976;28;1933;-48
2022/03/12 08:00:16;;;;;;;;;;;;;;;15.15;19.65;96272.06;5117461;28;1032;-49
2022/03/12 08:02:43;;;;;;;;;;;;;;;18.93;16.72;96276.34;5116982;28;988;-49
2022/03/12 08:05:09;;;;;;;;;;;;;;;21.95;15.06;96278.88;5117151;28;1068;-50
2022/03/12 08:07:36;;;;;;;;;;;;;;;23.30;13.39;96285.09;5116746;28;1028;-50
2022/03/12 08:10:02;;;;;;;;;;;;;;;24.05;13.33;96276.41;5118721;27;3291;-69
2022/03/12 08:12:32;;;;;;;;;;;;;;;23.14;13.48;96282.78;5117574;27;2729;-50
2022/03/12 08:14:59;;;;;;;;;;;;;;;22.64;13.37;96268.78;5115857;28;1000;-50
2022/03/12 08:17:25;;;;;;;;;;;;;;;23.16;13.88;96278.81;5115802;28;1937;-50
2022/03/12 08:19:51;;;;;;;;;;;;;;;23.93;13.16;96284.47;5115840;28;1182;-50
2022/03/12 08:22:18;;;;;;;;;;;;;;;25.04;12.65;96281.38;5115807;28;937;-55
2022/03/12 08:24:44;;;;;;;;;;;;;;;25.27;12.69;96278.03;5115614;28;1028;-51
2022/03/12 08:27:13;;;;;;;;;;;;;;;25.58;12.54;96279.81;5116418;28;1028;-50
2022/03/12 08:29:39;;;;;;;;;;;;;;;24.92;12.68;96275.81;5118714;27;2900;-50
2022/03/12 08:32:07;;;;;;;;;;;;;;;25.33;11.90;96277.13;5123523;27;3201;-49
2022/03/12 08:34:34;;;;;;;;;;;;;;;25.23;11.72;96276.81;5137081;27;1044;-49
2022/03/12 08:37:01;;;;;;;;;;;;;;;25.93;11.49;96281.09;5120873;27;3137;-50
2022/03/12 08:39:27;;;;;;;;;;;;;;;25.60;11.34;96280.41;5115079;28;1047;-49
2022/03/12 08:41:53;;;;;;;;;;;;;;;25.08;11.30;96282.59;5115983;28;975;-49
2022/03/12 08:44:20;;;;;;;;;;;;;;;23.91;11.51;96292.03;5116097;28;1020;-50
2022/03/12 08:46:46;;;;;;;;;;;;;;;22.29;12.12;96286.16;5116129;28;969;-49
2022/03/12 08:49:12;;;;;;;;;;;;;;;19.75;14.29;96279.97;5132016;27;3182;-49
2022/03/12 08:51:39;;;;;;;;;;;;;;;16.34;16.08;96279.06;5136824;27;1247;-48
2022/03/12 08:54:05;;;;;;;;;;;;;;;15.10;17.85;96282.50;5136373;27;1468;-48
2022/03/12 08:56:31;;;;;;;;;;;;;;;14.38;17.91;96288.13;5136429;27;1020;-48
2022/03/12 08:58:58;;;;;;;;;;;;;;;14.22;18.11;96287.97;5136280;27;1909;-48
2022/03/12 09:01:25;;;;;;;;;;;;;;;14.25;18.04;96290.38;5136353;27;961;-48
2022/03/12 09:03:51;;;;;;;;;;;;;;;13.62;17.94;96289.47;5136379;27;1024;-54
2022/03/12 09:06:18;;;;;;;;;;;;;;;12.98;18.96;96285.84;5136332;27;1106;-50
2022/03/12 09:08:47;;;;;;;;;;;;;;;12.89;19.57;96287.56;5136185;27;964;-49
2022/03/12 09:11:18;;;;;;;;;;;;;;;12.46;19.50;96278.25;5097586;27;1799;-52
2022/03/12 09:13:46;;;;;;;;;;;;;;;11.86;20.44;96283.81;5135852;27;969;-48
2022/03/12 09:16:14;;;;;;;;;;;;;;;11.00;20.81;96282.69;5136078;27;1083;-48
2022/03/12 09:19:17;;;;;;;;;;;;;;;11.53;21.26;96287.72;3333641;28;2945;-49
2022/03/12 09:21:43;;;;;;;;;;;;;;;12.25;21.36;96283.78;5092818;28;1045;-49
2022/03/12 09:24:11;;;;;;;;;;;;;;;11.98;20.26;96294.41;5089633;28;3078;-48
2022/03/12 09:26:37;;;;;;;;;;;;;;;11.96;20.06;96283.00;5072376;28;964;-48
2022/03/12 09:29:03;;;;;;;;;;;;;;;11.65;20.68;96283.09;5072191;28;1029;-49
2022/03/12 09:31:29;;;;;;;;;;;;;;;12.25;20.62;96289.16;5071510;28;1008;-47
2022/03/12 09:33:55;;;;;;;;;;;;;;;11.11;21.25;96283.41;5072105;28;1029;-48
2022/03/12 09:36:22;;;;;;;;;;;;;;;10.62;22.39;96287.72;5072287;28;1096;-48
2022/03/12 09:38:48;;;;;;;;;;;;;;;10.69;22.44;96272.84;5071903;28;1983;-48
2022/03/12 09:41:14;;;;;;;;;;;;;;;10.14;22.90;96281.09;5055492;28;1029;-49
2022/03/12 09:43:41;;;;;;;;;;;;;;;9.29;22.84;96265.09;5071794;28;1052;-48
2022/03/12 09:46:07;;;;;;;;;;;;;;;9.09;24.58;96272.09;5072087;28;1226;-48
2022/03/12 09:48:33;;;;;;;;;;;;;;;8.97;24.53;96271.25;5071978;28;989;-48
2022/03/12 09:50:59;;;;;;;;;;;;;;;9.19;22.87;96273.03;5076900;28;1146;-48
2022/03/12 09:53:25;;;;;;;;;;;;;;;9.58;22.61;96266.22;5092038;28;1021;-48
2022/03/12 09:55:51;;;;;;;;;;;;;;;9.71;22.35;96278.53;5092562;28;1029;-49
2022/03/12 09:58:18;;;;;;;;;;;;;;;9.75;22.60;96282.66;5094186;28;1938;-48
2022/03/12 10:00:44;;;;;;;;;;;;;;;8.78;23.51;96278.06;5094555;28;976;-48
2022/03/12 10:03:11;;;;;;;;;;;;;;;8.99;23.77;96280.84;5094133;28;1012;-48
2022/03/12 10:05:37;;;;;;;;;;;;;;;8.68;23.04;96274.44;5094170;28;1028;-49
2022/03/12 10:08:03;;;;;;;;;;;;;;;8.36;24.19;96269.78;5094266;28;1007;-48
2022/03/12 10:10:31;;;;;;;;;;;;;;;8.11;24.87;96268.19;5093833;28;984;-49
2022/03/12 10:12:57;;;;;;;;;;;;;;;8.31;24.70;96268.44;5093846;28;1028;-49
2022/03/12 10:15:23;;;;;;;;;;;;;;;7.84;25.77;96263.16;5094090;28;961;-49
2022/03/12 10:17:49;;;;;;;;;;;;;;;8.04;26.23;96272.28;5094053;28;1917;-48
2022/03/12 10:20:17;;;;;;;;;;;;;;;8.62;26.11;96276.75;5118016;27;1147;-48
2022/03/12 10:22:45;;;;;;;;;;;;;;;8.60;25.64;96268.88;5134823;27;1035;-47
2022/03/12 10:25:12;;;;;;;;;;;;;;;7.81;26.66;96274.03;5134407;27;2862;-48
2022/03/12 10:27:39;;;;;;;;;;;;;;;7.81;25.37;96266.91;5133706;27;1114;-48
2022/03/12 10:30:06;;;;;;;;;;;;;;;7.39;26.36;96263.00;5133362;27;998;-48
2022/03/12 10:32:34;;;;;;;;;;;;;;;7.30;28.29;96261.03;5134452;27;1039;-48
2022/03/12 10:35:02;;;;;;;;;;;;;;;6.35;27.48;96272.22;5134508;27;1046;-48
2022/03/12 10:37:31;;;;;;;;;;;;;;;5.97;27.73;96270.44;5133287;27;1901;-48
2022/03/12 10:40:00;;;;;;;;;;;;;;;5.68;29.79;96267.94;5134185;27;1055;-47
2022/03/12 10:42:48;;;;;;;;;;;;;;;6.54;28.41;96269.13;5133409;27;1505;-47
2022/03/12 10:45:23;;;;;;;;;;;;;;;7.20;28.70;96252.88;5134649;27;1035;-48
2022/03/12 10:47:59;;;;;;;;;;;;;;;7.62;26.40;96250.63;5134755;27;1040;-48
2022/03/12 10:50:45;;;;;;;;;;;;;;;7.40;26.27;96249.59;5134261;27;1232;-48
2022/03/12 10:53:13;;;;;;;;;;;;;;;7.27;26.56;96259.44;5113769;28;1885;-49
2022/03/12 10:55:41;;;;;;;;;;;;;;;7.09;27.51;96260.78;5113756;28;971;-48
2022/03/12 10:58:12;;;;;;;;;;;;;;;7.24;27.37;96254.34;5113588;28;1909;-48
2022/03/12 11:00:40;;;;;;;;;;;;;;;7.50;27.20;96249.75;5113517;28;1026;-48
2022/03/12 11:03:12;;;;;;;;;;;;;;;7.91;26.11;96245.75;5113560;28;1087;-48
2022/03/12 11:05:38;;;;;;;;;;;;;;;8.03;26.96;96259.94;5113790;28;1094;-48
2022/03/12 11:08:17;;;;;;;;;;;;;;;7.85;26.24;96246.22;5113858;28;985;-48
2022/03/12 11:10:49;;;;;;;;;;;;;;;7.58;27.98;96250.00;5113886;28;1007;-48
2022/03/12 11:13:27;;;;;;;;;;;;;;;7.50;28.69;96241.75;5113285;28;1019;-49
2022/03/12 11:16:05;;;;;;;;;;;;;;;6.41;28.40;96247.91;5113523;28;972;-48
2022/03/12 11:18:32;;;;;;;;;;;;;;;6.25;28.61;96247.28;5113537;28;1932;-49
2022/03/12 11:20:58;;;;;;;;;;;;;;;6.61;28.38;96245.63;5113169;28;1099;-49
2022/03/12 11:23:27;;;;;;;;;;;;;;;6.06;28.89;96235.28;5113562;28;1068;-48
2022/03/12 11:25:59;;;;;;;;;;;;;;;6.37;27.59;96246.41;5130969;28;2895;-48
2022/03/12 11:28:27;;;;;;;;;;;;;;;6.68;27.07;96230.97;5134292;27;1000;-49
2022/03/12 11:30:53;;;;;;;;;;;;;;;6.77;28.07;96229.41;5134218;27;976;-49
2022/03/12 11:33:20;;;;;;;;;;;;;;;7.11;26.89;96245.56;5133877;27;1015;-48
2022/03/12 11:35:49;;;;;;;;;;;;;;;7.01;27.14;96226.78;5133691;28;1024;-48
2022/03/12 11:38:18;;;;;;;;;;;;;;;6.72;27.16;96226.28;5133805;27;1913;-48
2022/03/12 11:40:46;;;;;;;;;;;;;;;6.77;26.77;96219.66;5133801;27;1028;-48
2022/03/12 11:43:24;;;;;;;;;;;;;;;6.63;27.20;96215.31;5133904;27;1028;-49
2022/03/12 11:45:53;;;;;;;;;;;;;;;6.44;28.58;96225.59;5133886;28;1019;-49
2022/03/12 11:48:19;;;;;;;;;;;;;;;6.39;27.85;96222.41;5133945;27;1040;-48
2022/03/12 11:50:45;;;;;;;;;;;;;;;6.35;27.48;96211.13;5130360;27;1085;-48
2022/03/12 11:53:14;;;;;;;;;;;;;;;5.97;26.43;96214.69;5113441;28;1091;-49
2022/03/12 11:55:40;;;;;;;;;;;;;;;6.20;28.34;96217.53;5115424;28;1027;-49
2022/03/12 11:58:07;;;;;;;;;;;;;;;5.93;27.52;96210.53;5117170;28;1984;-48
2022/03/12 12:00:33;;;;;;;;;;;;;;;6.14;28.07;96213.50;5116848;28;1008;-48
2022/03/12 12:02:59;;;;;;;;;;;;;;;6.26;25.78;96206.50;5117013;28;973;-49
2022/03/12 12:05:28;;;;;;;;;;;;;;;5.83;27.32;96214.78;5116822;28;981;-49
2022/03/12 12:07:55;;;;;;;;;;;;;;;5.57;27.89;96206.78;5117203;28;957;-49
2022/03/12 12:10:27;;;;;;;;;;;;;;;5.89;27.40;96197.59;5116656;27;1032;-49
2022/03/12 12:12:53;;;;;;;;;;;;;;;5.61;28.65;96202.97;5116571;27;1015;-49
2022/03/12 12:15:26;;;;;;;;;;;;;;;5.73;28.17;96208.38;5116504;28;1027;-49
2022/03/12 12:17:52;;;;;;;;;;;;;;;5.82;28.65;96210.41;5116624;28;1978;-48
2022/03/12 12:20:21;;;;;;;;;;;;;;;5.73;28.48;96203.94;5116401;28;1266;-49
2022/03/12 12:22:47;;;;;;;;;;;;;;;5.64;25.83;96200.13;5116797;28;983;-49
2022/03/12 12:25:15;;;;;;;;;;;;;;;5.50;28.67;96192.22;5128465;27;2918;-48
2022/03/12 12:27:44;;;;;;;;;;;;;;;5.74;29.00;96200.31;5136936;27;1079;-50
2022/03/12 12:30:11;;;;;;;;;;;;;;;5.57;27.20;96188.22;5137111;27;1075;-50
2022/03/12 12:32:47;;;;;;;;;;;;;;;5.80;29.44;96196.41;5136800;27;1059;-48
2022/03/12 12:35:15;;;;;;;;;;;;;;;5.59;28.29;96194.25;5137090;27;977;-48
2022/03/12 12:37:46;;;;;;;;;;;;;;;5.25;29.78;96199.22;5136665;27;1905;-48
2022/03/12 12:40:23;;;;;;;;;;;;;;;5.59;29.73;96199.56;5136743;27;1024;-48
2022/03/12 12:42:50;;;;;;;;;;;;;;;5.60;28.85;96200.44;5136730;27;960;-49
2022/03/12 12:45:18;;;;;;;;;;;;;;;5.48;29.04;96207.41;5136973;27;957;-49
2022/03/12 12:47:44;;;;;;;;;;;;;;;5.27;28.70;96202.63;5136571;27;1036;-49
2022/03/12 12:50:18;;;;;;;;;;;;;;;5.30;29.26;96196.25;5136839;27;1035;-48
2022/03/12 12:53:04;;;;;;;;;;;;;;;5.34;29.19;96196.91;5116708;27;1168;-49
2022/03/12 12:55:32;;;;;;;;;;;;;;;5.23;29.21;96200.25;5115830;28;1211;-49
2022/03/12 12:57:58;;;;;;;;;;;;;;;5.29;30.23;96202.50;5115654;28;2000;-48
2022/03/12 13:00:27;;;;;;;;;;;;;;;5.20;27.28;96189.88;5116175;28;1020;-49
2022/03/12 13:02:53;;;;;;;;;;;;;;;5.16;29.04;96180.41;5114715;28;971;-49
2022/03/12 13:05:20;;;;;;;;;;;;;;;5.12;29.42;96182.41;5115780;27;971;-49